sensor_id;sensor_type;location;lat;lon;timestamp;P1;durP1;ratioP1;P2;durP2;ratioP2
75035;SDS011;73110;51.658;5.826;2023-10-13T00:01:47;14.40;;;9.50;;
75035;SDS011;73110;51.658;5.826;2023-10-13T00:03:52;14.38;;;8.18;;
75035;SDS011;73110;51.658;5.826;2023-10-13T00:05:56;12.30;;;7.05;;
75035;SDS011;73110;51.658;5.826;2023-10-13T00:08:01;15.85;;;7.93;;
75035;SDS011;73110;51.658;5.826;2023-10-13T00:10:04;14.13;;;8.45;;
75035;SDS011;73110;51.658;5.826;2023-10-13T00:12:14;12.88;;;8.68;;
75035;SDS011;73110;51.658;5.826;2023-10-13T00:14:15;15.50;;;7.82;;
75035;SDS011;73110;51.658;5.826;2023-10-13T00:16:17;17.80;;;9.48;;
75035;SDS011;73110;51.658;5.826;2023-10-13T00:18:22;14.50;;;8.40;;
75035;SDS011;73110;51.658;5.826;2023-10-13T00:20:28;15.75;;;9.75;;
75035;SDS011;73110;51.658;5.826;2023-10-13T00:22:36;14.63;;;8.68;;
75035;SDS011;73110;51.658;5.826;2023-10-13T00:24:41;20.00;;;8.15;;
75035;SDS011;73110;51.658;5.826;2023-10-13T00:26:45;12.68;;;7.80;;
75035;SDS011;73110;51.658;5.826;2023-10-13T00:28:46;17.45;;;9.88;;
75035;SDS011;73110;51.658;5.826;2023-10-13T00:30:48;14.27;;;8.13;;
75035;SDS011;73110;51.658;5.826;2023-10-13T00:32:52;15.75;;;8.63;;
75035;SDS011;73110;51.658;5.826;2023-10-13T00:34:57;17.88;;;8.25;;
75035;SDS011;73110;51.658;5.826;2023-10-13T00:36:58;17.35;;;10.05;;
75035;SDS011;73110;51.658;5.826;2023-10-13T00:39:28;16.83;;;8.25;;
75035;SDS011;73110;51.658;5.826;2023-10-13T00:41:29;14.38;;;8.15;;
75035;SDS011;73110;51.658;5.826;2023-10-13T00:46:04;12.25;;;7.15;;
75035;SDS011;73110;51.658;5.826;2023-10-13T00:48:06;21.05;;;9.25;;
75035;SDS011;73110;51.658;5.826;2023-10-13T00:50:11;13.38;;;7.68;;
75035;SDS011;73110;51.658;5.826;2023-10-13T00:52:15;14.90;;;7.03;;
75035;SDS011;73110;51.658;5.826;2023-10-13T00:54:19;16.20;;;8.85;;
75035;SDS011;73110;51.658;5.826;2023-10-13T00:56:27;17.27;;;8.73;;
75035;SDS011;73110;51.658;5.826;2023-10-13T00:58:31;12.50;;;7.20;;
75035;SDS011;73110;51.658;5.826;2023-10-13T01:00:35;12.07;;;7.65;;
75035;SDS011;73110;51.658;5.826;2023-10-13T01:02:47;15.15;;;7.82;;
75035;SDS011;73110;51.658;5.826;2023-10-13T01:04:57;20.65;;;9.32;;
75035;SDS011;73110;51.658;5.826;2023-10-13T01:06:58;16.27;;;7.70;;
75035;SDS011;73110;51.658;5.826;2023-10-13T01:09:01;12.38;;;8.48;;
75035;SDS011;73110;51.658;5.826;2023-10-13T01:11:13;18.50;;;8.07;;
75035;SDS011;73110;51.658;5.826;2023-10-13T01:13:14;16.73;;;9.02;;
75035;SDS011;73110;51.658;5.826;2023-10-13T01:15:15;16.67;;;8.57;;
75035;SDS011;73110;51.658;5.826;2023-10-13T01:17:21;15.02;;;8.95;;
75035;SDS011;73110;51.658;5.826;2023-10-13T01:19:24;13.82;;;8.43;;
75035;SDS011;73110;51.658;5.826;2023-10-13T01:21:26;14.32;;;8.30;;
75035;SDS011;73110;51.658;5.826;2023-10-13T01:23:28;12.52;;;8.02;;
75035;SDS011;73110;51.658;5.826;2023-10-13T01:25:29;16.13;;;7.95;;
75035;SDS011;73110;51.658;5.826;2023-10-13T01:27:30;14.50;;;7.63;;
75035;SDS011;73110;51.658;5.826;2023-10-13T01:29:32;18.02;;;8.18;;
75035;SDS011;73110;51.658;5.826;2023-10-13T01:31:33;12.27;;;7.15;;
75035;SDS011;73110;51.658;5.826;2023-10-13T01:33:37;15.25;;;7.75;;
75035;SDS011;73110;51.658;5.826;2023-10-13T01:35:38;13.27;;;6.35;;
75035;SDS011;73110;51.658;5.826;2023-10-13T01:37:43;12.40;;;7.13;;
75035;SDS011;73110;51.658;5.826;2023-10-13T01:39:44;11.40;;;6.47;;
75035;SDS011;73110;51.658;5.826;2023-10-13T01:41:48;12.15;;;6.93;;
75035;SDS011;73110;51.658;5.826;2023-10-13T01:43:55;11.55;;;6.95;;
75035;SDS011;73110;51.658;5.826;2023-10-13T01:45:57;12.90;;;8.15;;
75035;SDS011;73110;51.658;5.826;2023-10-13T01:47:58;10.02;;;5.97;;
75035;SDS011;73110;51.658;5.826;2023-10-13T01:49:59;22.80;;;7.80;;
75035;SDS011;73110;51.658;5.826;2023-10-13T01:52:20;12.05;;;7.65;;
75035;SDS011;73110;51.658;5.826;2023-10-13T01:54:20;11.23;;;6.15;;
75035;SDS011;73110;51.658;5.826;2023-10-13T01:56:22;8.30;;;5.63;;
75035;SDS011;73110;51.658;5.826;2023-10-13T01:58:29;12.75;;;6.82;;
75035;SDS011;73110;51.658;5.826;2023-10-13T02:00:30;12.25;;;6.50;;
75035;SDS011;73110;51.658;5.826;2023-10-13T02:02:31;11.80;;;7.05;;
75035;SDS011;73110;51.658;5.826;2023-10-13T02:04:32;9.20;;;6.53;;
75035;SDS011;73110;51.658;5.826;2023-10-13T02:06:34;11.85;;;6.88;;
75035;SDS011;73110;51.658;5.826;2023-10-13T02:08:38;12.30;;;6.30;;
75035;SDS011;73110;51.658;5.826;2023-10-13T02:10:44;9.25;;;5.82;;
75035;SDS011;73110;51.658;5.826;2023-10-13T02:12:46;12.35;;;5.38;;
75035;SDS011;73110;51.658;5.826;2023-10-13T02:14:46;10.90;;;5.80;;
75035;SDS011;73110;51.658;5.826;2023-10-13T02:16:48;10.40;;;5.53;;
75035;SDS011;73110;51.658;5.826;2023-10-13T02:18:56;12.65;;;6.22;;
75035;SDS011;73110;51.658;5.826;2023-10-13T02:21:04;8.73;;;5.90;;
75035;SDS011;73110;51.658;5.826;2023-10-13T02:23:05;10.13;;;6.22;;
75035;SDS011;73110;51.658;5.826;2023-10-13T02:25:10;12.48;;;6.07;;
75035;SDS011;73110;51.658;5.826;2023-10-13T02:27:19;11.45;;;6.55;;
75035;SDS011;73110;51.658;5.826;2023-10-13T02:29:23;9.65;;;5.75;;
75035;SDS011;73110;51.658;5.826;2023-10-13T02:31:27;9.32;;;5.65;;
75035;SDS011;73110;51.658;5.826;2023-10-13T02:33:29;12.90;;;6.88;;
75035;SDS011;73110;51.658;5.826;2023-10-13T02:35:30;9.88;;;6.50;;
75035;SDS011;73110;51.658;5.826;2023-10-13T02:37:42;14.45;;;7.15;;
75035;SDS011;73110;51.658;5.826;2023-10-13T02:39:54;13.13;;;7.28;;
75035;SDS011;73110;51.658;5.826;2023-10-13T02:41:58;12.77;;;7.10;;
75035;SDS011;73110;51.658;5.826;2023-10-13T02:43:59;11.15;;;7.05;;
75035;SDS011;73110;51.658;5.826;2023-10-13T02:45:59;11.52;;;7.63;;
75035;SDS011;73110;51.658;5.826;2023-10-13T02:48:02;15.52;;;7.93;;
75035;SDS011;73110;51.658;5.826;2023-10-13T02:50:13;13.82;;;8.80;;
75035;SDS011;73110;51.658;5.826;2023-10-13T02:52:14;10.90;;;7.53;;
75035;SDS011;73110;51.658;5.826;2023-10-13T02:54:15;14.90;;;8.40;;
75035;SDS011;73110;51.658;5.826;2023-10-13T02:56:19;14.63;;;7.88;;
75035;SDS011;73110;51.658;5.826;2023-10-13T02:58:23;14.20;;;8.70;;
75035;SDS011;73110;51.658;5.826;2023-10-13T03:00:38;14.80;;;8.60;;
75035;SDS011;73110;51.658;5.826;2023-10-13T03:02:41;16.98;;;8.98;;
75035;SDS011;73110;51.658;5.826;2023-10-13T03:04:48;19.30;;;10.48;;
75035;SDS011;73110;51.658;5.826;2023-10-13T03:06:52;20.20;;;9.68;;
75035;SDS011;73110;51.658;5.826;2023-10-13T03:08:53;15.20;;;8.85;;
75035;SDS011;73110;51.658;5.826;2023-10-13T03:10:54;16.35;;;10.48;;
75035;SDS011;73110;51.658;5.826;2023-10-13T03:12:55;17.30;;;10.05;;
75035;SDS011;73110;51.658;5.826;2023-10-13T03:14:56;16.13;;;9.20;;
75035;SDS011;73110;51.658;5.826;2023-10-13T03:17:13;17.00;;;10.32;;
75035;SDS011;73110;51.658;5.826;2023-10-13T03:19:17;16.25;;;9.65;;
75035;SDS011;73110;51.658;5.826;2023-10-13T03:21:20;16.42;;;9.43;;
75035;SDS011;73110;51.658;5.826;2023-10-13T03:23:29;16.00;;;9.70;;
75035;SDS011;73110;51.658;5.826;2023-10-13T03:25:45;15.52;;;9.10;;
75035;SDS011;73110;51.658;5.826;2023-10-13T03:27:51;14.48;;;9.48;;
75035;SDS011;73110;51.658;5.826;2023-10-13T03:29:52;15.23;;;9.00;;
75035;SDS011;73110;51.658;5.826;2023-10-13T03:31:56;16.90;;;9.50;;
75035;SDS011;73110;51.658;5.826;2023-10-13T03:34:07;18.52;;;9.02;;
75035;SDS011;73110;51.658;5.826;2023-10-13T03:36:13;15.02;;;10.05;;
75035;SDS011;73110;51.658;5.826;2023-10-13T03:38:34;19.30;;;9.55;;
75035;SDS011;73110;51.658;5.826;2023-10-13T03:40:37;16.70;;;8.27;;
75035;SDS011;73110;51.658;5.826;2023-10-13T03:42:39;15.70;;;10.15;;
75035;SDS011;73110;51.658;5.826;2023-10-13T03:44:40;15.82;;;9.48;;
75035;SDS011;73110;51.658;5.826;2023-10-13T03:46:46;16.20;;;9.10;;
75035;SDS011;73110;51.658;5.826;2023-10-13T03:48:50;15.95;;;9.60;;
75035;SDS011;73110;51.658;5.826;2023-10-13T03:51:02;17.60;;;10.27;;
75035;SDS011;73110;51.658;5.826;2023-10-13T03:53:11;16.70;;;9.10;;
75035;SDS011;73110;51.658;5.826;2023-10-13T03:55:13;16.08;;;10.40;;
75035;SDS011;73110;51.658;5.826;2023-10-13T03:57:18;17.95;;;9.52;;
75035;SDS011;73110;51.658;5.826;2023-10-13T03:59:19;16.63;;;9.15;;
75035;SDS011;73110;51.658;5.826;2023-10-13T04:01:20;18.05;;;10.40;;
75035;SDS011;73110;51.658;5.826;2023-10-13T04:03:31;15.70;;;9.27;;
75035;SDS011;73110;51.658;5.826;2023-10-13T04:05:38;21.35;;;8.73;;
75035;SDS011;73110;51.658;5.826;2023-10-13T04:07:39;19.25;;;10.05;;
75035;SDS011;73110;51.658;5.826;2023-10-13T04:09:40;18.63;;;9.88;;
75035;SDS011;73110;51.658;5.826;2023-10-13T04:11:46;18.70;;;9.45;;
75035;SDS011;73110;51.658;5.826;2023-10-13T04:14:03;21.83;;;11.50;;
75035;SDS011;73110;51.658;5.826;2023-10-13T04:16:21;21.27;;;11.15;;
75035;SDS011;73110;51.658;5.826;2023-10-13T04:18:22;21.25;;;9.45;;
75035;SDS011;73110;51.658;5.826;2023-10-13T04:20:52;16.55;;;10.43;;
75035;SDS011;73110;51.658;5.826;2023-10-13T04:23:04;20.00;;;11.13;;
75035;SDS011;73110;51.658;5.826;2023-10-13T04:25:20;17.33;;;9.30;;
75035;SDS011;73110;51.658;5.826;2023-10-13T04:27:43;18.90;;;10.27;;
75035;SDS011;73110;51.658;5.826;2023-10-13T04:30:11;18.35;;;11.18;;
75035;SDS011;73110;51.658;5.826;2023-10-13T04:32:19;21.67;;;10.73;;
75035;SDS011;73110;51.658;5.826;2023-10-13T04:34:30;17.80;;;9.20;;
75035;SDS011;73110;51.658;5.826;2023-10-13T04:36:38;20.33;;;10.35;;
75035;SDS011;73110;51.658;5.826;2023-10-13T04:38:49;18.38;;;11.10;;
75035;SDS011;73110;51.658;5.826;2023-10-13T04:41:00;19.20;;;10.85;;
75035;SDS011;73110;51.658;5.826;2023-10-13T04:43:02;16.80;;;9.18;;
75035;SDS011;73110;51.658;5.826;2023-10-13T04:45:26;16.35;;;9.35;;
75035;SDS011;73110;51.658;5.826;2023-10-13T04:47:30;13.93;;;9.13;;
75035;SDS011;73110;51.658;5.826;2023-10-13T04:49:41;19.90;;;10.52;;
75035;SDS011;73110;51.658;5.826;2023-10-13T04:51:48;18.60;;;9.50;;
75035;SDS011;73110;51.658;5.826;2023-10-13T04:53:59;18.15;;;9.27;;
75035;SDS011;73110;51.658;5.826;2023-10-13T04:56:26;13.95;;;7.82;;
75035;SDS011;73110;51.658;5.826;2023-10-13T04:58:53;18.23;;;8.23;;
75035;SDS011;73110;51.658;5.826;2023-10-13T05:01:13;13.20;;;7.95;;
75035;SDS011;73110;51.658;5.826;2023-10-13T05:03:26;12.95;;;7.88;;
75035;SDS011;73110;51.658;5.826;2023-10-13T05:05:59;14.30;;;7.85;;
75035;SDS011;73110;51.658;5.826;2023-10-13T05:08:32;13.63;;;8.00;;
75035;SDS011;73110;51.658;5.826;2023-10-13T05:10:51;12.60;;;7.28;;
75035;SDS011;73110;51.658;5.826;2023-10-13T05:13:10;9.65;;;7.10;;
75035;SDS011;73110;51.658;5.826;2023-10-13T05:15:30;15.30;;;6.75;;
75035;SDS011;73110;51.658;5.826;2023-10-13T05:20:09;11.82;;;6.75;;
75035;SDS011;73110;51.658;5.826;2023-10-13T05:22:28;9.55;;;6.30;;
75035;SDS011;73110;51.658;5.826;2023-10-13T05:24:48;10.05;;;5.63;;
75035;SDS011;73110;51.658;5.826;2023-10-13T05:27:07;9.70;;;6.15;;
75035;SDS011;73110;51.658;5.826;2023-10-13T05:29:27;11.35;;;5.30;;
75035;SDS011;73110;51.658;5.826;2023-10-13T05:31:46;9.77;;;5.47;;
75035;SDS011;73110;51.658;5.826;2023-10-13T05:34:06;8.27;;;5.57;;
75035;SDS011;73110;51.658;5.826;2023-10-13T05:36:25;9.88;;;5.18;;
75035;SDS011;73110;51.658;5.826;2023-10-13T05:38:44;10.15;;;6.07;;
75035;SDS011;73110;51.658;5.826;2023-10-13T05:43:25;8.65;;;4.55;;
75035;SDS011;73110;51.658;5.826;2023-10-13T05:48:03;7.53;;;4.45;;
75035;SDS011;73110;51.658;5.826;2023-10-13T05:50:19;7.15;;;4.30;;
75035;SDS011;73110;51.658;5.826;2023-10-13T05:52:20;6.72;;;4.20;;
75035;SDS011;73110;51.658;5.826;2023-10-13T05:54:41;6.30;;;3.95;;
75035;SDS011;73110;51.658;5.826;2023-10-13T05:57:01;6.25;;;4.00;;
75035;SDS011;73110;51.658;5.826;2023-10-13T05:59:20;4.53;;;3.35;;
75035;SDS011;73110;51.658;5.826;2023-10-13T06:03:59;6.85;;;3.70;;
75035;SDS011;73110;51.658;5.826;2023-10-13T06:08:38;5.25;;;3.65;;
75035;SDS011;73110;51.658;5.826;2023-10-13T06:11:03;8.35;;;4.55;;
75035;SDS011;73110;51.658;5.826;2023-10-13T06:15:42;8.05;;;3.80;;
75035;SDS011;73110;51.658;5.826;2023-10-13T06:20:21;6.43;;;4.55;;
75035;SDS011;73110;51.658;5.826;2023-10-13T06:22:41;8.95;;;4.45;;
75035;SDS011;73110;51.658;5.826;2023-10-13T06:25:00;6.60;;;4.03;;
75035;SDS011;73110;51.658;5.826;2023-10-13T06:27:20;10.68;;;4.75;;
75035;SDS011;73110;51.658;5.826;2023-10-13T06:29:39;9.63;;;5.30;;
75035;SDS011;73110;51.658;5.826;2023-10-13T06:31:41;7.18;;;4.63;;
75035;SDS011;73110;51.658;5.826;2023-10-13T06:33:47;9.88;;;4.18;;
75035;SDS011;73110;51.658;5.826;2023-10-13T06:35:51;6.00;;;4.43;;
75035;SDS011;73110;51.658;5.826;2023-10-13T06:37:57;8.80;;;5.18;;
75035;SDS011;73110;51.658;5.826;2023-10-13T06:40:02;9.30;;;5.25;;
75035;SDS011;73110;51.658;5.826;2023-10-13T06:42:22;12.65;;;4.03;;
75035;SDS011;73110;51.658;5.826;2023-10-13T06:44:27;8.13;;;4.70;;
75035;SDS011;73110;51.658;5.826;2023-10-13T06:46:32;8.65;;;4.30;;
75035;SDS011;73110;51.658;5.826;2023-10-13T06:48:35;12.20;;;5.82;;
75035;SDS011;73110;51.658;5.826;2023-10-13T06:50:36;10.40;;;5.25;;
75035;SDS011;73110;51.658;5.826;2023-10-13T06:52:42;7.95;;;4.78;;
75035;SDS011;73110;51.658;5.826;2023-10-13T06:54:43;8.65;;;4.80;;
75035;SDS011;73110;51.658;5.826;2023-10-13T06:56:44;7.20;;;4.50;;
75035;SDS011;73110;51.658;5.826;2023-10-13T06:58:46;9.48;;;5.50;;
75035;SDS011;73110;51.658;5.826;2023-10-13T07:00:47;9.38;;;4.20;;
75035;SDS011;73110;51.658;5.826;2023-10-13T07:02:55;11.68;;;5.20;;
75035;SDS011;73110;51.658;5.826;2023-10-13T07:05:15;7.72;;;4.50;;
75035;SDS011;73110;51.658;5.826;2023-10-13T07:07:16;8.45;;;4.20;;
75035;SDS011;73110;51.658;5.826;2023-10-13T07:09:17;8.68;;;4.65;;
75035;SDS011;73110;51.658;5.826;2023-10-13T07:11:36;8.77;;;4.47;;
75035;SDS011;73110;51.658;5.826;2023-10-13T07:15:50;10.30;;;4.30;;
75035;SDS011;73110;51.658;5.826;2023-10-13T07:17:51;10.00;;;4.88;;
75035;SDS011;73110;51.658;5.826;2023-10-13T07:19:56;8.85;;;4.75;;
75035;SDS011;73110;51.658;5.826;2023-10-13T07:22:06;8.55;;;4.40;;
75035;SDS011;73110;51.658;5.826;2023-10-13T07:24:19;10.73;;;4.10;;
75035;SDS011;73110;51.658;5.826;2023-10-13T07:26:22;6.93;;;3.78;;
75035;SDS011;73110;51.658;5.826;2023-10-13T07:28:24;10.02;;;4.13;;
75035;SDS011;73110;51.658;5.826;2023-10-13T07:30:25;12.05;;;4.60;;
75035;SDS011;73110;51.658;5.826;2023-10-13T07:32:27;10.85;;;5.93;;
75035;SDS011;73110;51.658;5.826;2023-10-13T07:34:29;7.78;;;4.70;;
75035;SDS011;73110;51.658;5.826;2023-10-13T07:36:33;11.43;;;4.80;;
75035;SDS011;73110;51.658;5.826;2023-10-13T07:38:40;8.75;;;5.05;;
75035;SDS011;73110;51.658;5.826;2023-10-13T07:40:48;9.90;;;4.68;;
75035;SDS011;73110;51.658;5.826;2023-10-13T07:42:53;8.50;;;3.97;;
75035;SDS011;73110;51.658;5.826;2023-10-13T07:45:01;9.45;;;4.25;;
75035;SDS011;73110;51.658;5.826;2023-10-13T07:47:04;17.90;;;5.95;;
75035;SDS011;73110;51.658;5.826;2023-10-13T07:49:07;10.70;;;5.57;;
75035;SDS011;73110;51.658;5.826;2023-10-13T07:51:14;9.27;;;4.43;;
75035;SDS011;73110;51.658;5.826;2023-10-13T07:53:19;8.75;;;4.65;;
75035;SDS011;73110;51.658;5.826;2023-10-13T07:55:22;11.55;;;4.70;;
75035;SDS011;73110;51.658;5.826;2023-10-13T07:57:23;13.70;;;6.10;;
75035;SDS011;73110;51.658;5.826;2023-10-13T08:01:31;12.27;;;5.70;;
75035;SDS011;73110;51.658;5.826;2023-10-13T08:03:33;11.75;;;6.90;;
75035;SDS011;73110;51.658;5.826;2023-10-13T08:05:44;12.80;;;6.93;;
75035;SDS011;73110;51.658;5.826;2023-10-13T08:08:22;13.70;;;5.20;;
75035;SDS011;73110;51.658;5.826;2023-10-13T08:10:41;11.02;;;4.65;;
75035;SDS011;73110;51.658;5.826;2023-10-13T08:12:45;10.02;;;4.95;;
75035;SDS011;73110;51.658;5.826;2023-10-13T08:14:46;10.68;;;4.93;;
75035;SDS011;73110;51.658;5.826;2023-10-13T08:16:48;12.32;;;5.05;;
75035;SDS011;73110;51.658;5.826;2023-10-13T08:18:53;13.43;;;5.82;;
75035;SDS011;73110;51.658;5.826;2023-10-13T08:20:54;10.70;;;5.07;;
75035;SDS011;73110;51.658;5.826;2023-10-13T08:22:54;9.85;;;4.30;;
75035;SDS011;73110;51.658;5.826;2023-10-13T08:25:13;10.23;;;5.30;;
75035;SDS011;73110;51.658;5.826;2023-10-13T08:27:46;9.43;;;4.70;;
75035;SDS011;73110;51.658;5.826;2023-10-13T08:30:10;11.40;;;5.07;;
75035;SDS011;73110;51.658;5.826;2023-10-13T08:32:27;14.48;;;5.70;;
75035;SDS011;73110;51.658;5.826;2023-10-13T08:34:32;7.43;;;4.18;;
75035;SDS011;73110;51.658;5.826;2023-10-13T08:36:43;8.70;;;4.88;;
75035;SDS011;73110;51.658;5.826;2023-10-13T08:38:45;9.93;;;4.20;;
75035;SDS011;73110;51.658;5.826;2023-10-13T08:40:57;7.85;;;4.28;;
75035;SDS011;73110;51.658;5.826;2023-10-13T08:43:17;10.55;;;5.45;;
75035;SDS011;73110;51.658;5.826;2023-10-13T08:45:18;10.80;;;5.32;;
75035;SDS011;73110;51.658;5.826;2023-10-13T08:47:22;12.02;;;4.47;;
75035;SDS011;73110;51.658;5.826;2023-10-13T08:49:25;8.65;;;5.10;;
75035;SDS011;73110;51.658;5.826;2023-10-13T08:51:31;11.73;;;4.40;;
75035;SDS011;73110;51.658;5.826;2023-10-13T08:53:45;14.55;;;4.85;;
75035;SDS011;73110;51.658;5.826;2023-10-13T08:55:53;10.75;;;4.35;;
75035;SDS011;73110;51.658;5.826;2023-10-13T08:58:08;11.55;;;5.03;;
75035;SDS011;73110;51.658;5.826;2023-10-13T09:00:15;15.48;;;4.40;;
75035;SDS011;73110;51.658;5.826;2023-10-13T09:02:40;7.28;;;4.30;;
75035;SDS011;73110;51.658;5.826;2023-10-13T09:04:59;10.13;;;3.95;;
75035;SDS011;73110;51.658;5.826;2023-10-13T09:07:10;9.68;;;4.20;;
75035;SDS011;73110;51.658;5.826;2023-10-13T09:09:22;13.13;;;4.57;;
75035;SDS011;73110;51.658;5.826;2023-10-13T09:11:49;9.95;;;4.10;;
75035;SDS011;73110;51.658;5.826;2023-10-13T09:13:52;13.25;;;6.50;;
75035;SDS011;73110;51.658;5.826;2023-10-13T09:15:53;14.10;;;5.43;;
75035;SDS011;73110;51.658;5.826;2023-10-13T09:18:00;9.23;;;4.35;;
75035;SDS011;73110;51.658;5.826;2023-10-13T09:20:16;11.85;;;4.15;;
75035;SDS011;73110;51.658;5.826;2023-10-13T09:22:42;7.78;;;4.50;;
75035;SDS011;73110;51.658;5.826;2023-10-13T09:24:53;12.93;;;4.80;;
75035;SDS011;73110;51.658;5.826;2023-10-13T09:26:59;10.27;;;4.45;;
75035;SDS011;73110;51.658;5.826;2023-10-13T09:29:03;12.95;;;5.13;;
75035;SDS011;73110;51.658;5.826;2023-10-13T09:31:21;10.73;;;4.47;;
75035;SDS011;73110;51.658;5.826;2023-10-13T09:33:27;11.85;;;4.50;;
75035;SDS011;73110;51.658;5.826;2023-10-13T09:35:50;11.23;;;4.38;;
75035;SDS011;73110;51.658;5.826;2023-10-13T09:37:52;10.77;;;4.40;;
75035;SDS011;73110;51.658;5.826;2023-10-13T09:39:56;16.05;;;4.72;;
75035;SDS011;73110;51.658;5.826;2023-10-13T09:42:05;12.85;;;4.03;;
75035;SDS011;73110;51.658;5.826;2023-10-13T09:44:10;10.20;;;4.55;;
75035;SDS011;73110;51.658;5.826;2023-10-13T09:46:13;8.38;;;4.60;;
75035;SDS011;73110;51.658;5.826;2023-10-13T09:48:20;13.13;;;4.38;;
75035;SDS011;73110;51.658;5.826;2023-10-13T09:50:30;10.32;;;4.75;;
75035;SDS011;73110;51.658;5.826;2023-10-13T09:52:34;12.90;;;3.88;;
75035;SDS011;73110;51.658;5.826;2023-10-13T09:54:38;10.35;;;4.45;;
75035;SDS011;73110;51.658;5.826;2023-10-13T09:56:51;9.15;;;5.18;;
75035;SDS011;73110;51.658;5.826;2023-10-13T09:59:02;8.70;;;4.65;;
75035;SDS011;73110;51.658;5.826;2023-10-13T10:01:14;8.98;;;4.22;;
75035;SDS011;73110;51.658;5.826;2023-10-13T10:03:49;13.07;;;4.53;;
75035;SDS011;73110;51.658;5.826;2023-10-13T10:05:55;8.65;;;4.63;;
75035;SDS011;73110;51.658;5.826;2023-10-13T10:08:24;8.68;;;5.95;;
75035;SDS011;73110;51.658;5.826;2023-10-13T10:10:42;13.35;;;5.13;;
75035;SDS011;73110;51.658;5.826;2023-10-13T10:13:14;11.32;;;3.92;;
75035;SDS011;73110;51.658;5.826;2023-10-13T10:15:27;10.70;;;4.03;;
75035;SDS011;73110;51.658;5.826;2023-10-13T10:17:44;10.23;;;4.57;;
75035;SDS011;73110;51.658;5.826;2023-10-13T10:19:46;10.88;;;4.63;;
75035;SDS011;73110;51.658;5.826;2023-10-13T10:22:03;9.82;;;4.35;;
75035;SDS011;73110;51.658;5.826;2023-10-13T10:24:20;9.00;;;4.65;;
75035;SDS011;73110;51.658;5.826;2023-10-13T10:26:50;9.35;;;5.03;;
75035;SDS011;73110;51.658;5.826;2023-10-13T10:28:52;10.05;;;5.72;;
75035;SDS011;73110;51.658;5.826;2023-10-13T10:31:03;11.10;;;6.03;;
75035;SDS011;73110;51.658;5.826;2023-10-13T10:33:10;9.15;;;4.43;;
75035;SDS011;73110;51.658;5.826;2023-10-13T10:35:23;9.60;;;4.68;;
75035;SDS011;73110;51.658;5.826;2023-10-13T10:37:30;17.27;;;5.00;;
75035;SDS011;73110;51.658;5.826;2023-10-13T10:39:35;9.20;;;5.05;;
75035;SDS011;73110;51.658;5.826;2023-10-13T10:41:46;11.10;;;4.78;;
75035;SDS011;73110;51.658;5.826;2023-10-13T10:43:52;13.43;;;4.22;;
75035;SDS011;73110;51.658;5.826;2023-10-13T10:45:53;13.40;;;6.35;;
75035;SDS011;73110;51.658;5.826;2023-10-13T10:48:00;9.68;;;5.07;;
75035;SDS011;73110;51.658;5.826;2023-10-13T10:50:24;9.07;;;4.65;;
75035;SDS011;73110;51.658;5.826;2023-10-13T10:52:35;11.48;;;6.05;;
75035;SDS011;73110;51.658;5.826;2023-10-13T10:54:37;8.05;;;4.75;;
75035;SDS011;73110;51.658;5.826;2023-10-13T10:58:53;11.15;;;4.20;;
75035;SDS011;73110;51.658;5.826;2023-10-13T11:01:06;8.50;;;4.30;;
75035;SDS011;73110;51.658;5.826;2023-10-13T11:03:19;8.80;;;4.35;;
75035;SDS011;73110;51.658;5.826;2023-10-13T11:05:20;14.43;;;4.28;;
75035;SDS011;73110;51.658;5.826;2023-10-13T11:07:24;8.80;;;4.90;;
75035;SDS011;73110;51.658;5.826;2023-10-13T11:09:32;10.98;;;4.93;;
75035;SDS011;73110;51.658;5.826;2023-10-13T11:11:35;8.95;;;4.85;;
75035;SDS011;73110;51.658;5.826;2023-10-13T11:13:42;9.45;;;4.70;;
75035;SDS011;73110;51.658;5.826;2023-10-13T11:15:51;9.27;;;4.45;;
75035;SDS011;73110;51.658;5.826;2023-10-13T11:17:52;7.43;;;3.97;;
75035;SDS011;73110;51.658;5.826;2023-10-13T11:20:07;7.85;;;4.65;;
75035;SDS011;73110;51.658;5.826;2023-10-13T11:22:26;16.45;;;4.50;;
75035;SDS011;73110;51.658;5.826;2023-10-13T11:26:41;10.02;;;4.88;;
75035;SDS011;73110;51.658;5.826;2023-10-13T11:28:52;10.27;;;4.70;;
75035;SDS011;73110;51.658;5.826;2023-10-13T11:30:56;9.82;;;4.40;;
75035;SDS011;73110;51.658;5.826;2023-10-13T11:33:01;24.23;;;5.90;;
75035;SDS011;73110;51.658;5.826;2023-10-13T11:35:08;14.50;;;4.53;;
75035;SDS011;73110;51.658;5.826;2023-10-13T11:39:38;10.60;;;4.53;;
75035;SDS011;73110;51.658;5.826;2023-10-13T11:41:43;13.65;;;4.43;;
75035;SDS011;73110;51.658;5.826;2023-10-13T11:43:54;9.85;;;4.53;;
75035;SDS011;73110;51.658;5.826;2023-10-13T11:46:07;11.93;;;4.63;;
75035;SDS011;73110;51.658;5.826;2023-10-13T11:48:08;7.47;;;4.32;;
75035;SDS011;73110;51.658;5.826;2023-10-13T11:50:15;10.23;;;4.55;;
75035;SDS011;73110;51.658;5.826;2023-10-13T11:52:32;12.27;;;4.53;;
75035;SDS011;73110;51.658;5.826;2023-10-13T11:54:33;12.25;;;4.80;;
75035;SDS011;73110;51.658;5.826;2023-10-13T11:56:36;12.75;;;5.28;;
75035;SDS011;73110;51.658;5.826;2023-10-13T11:58:39;9.90;;;4.85;;
75035;SDS011;73110;51.658;5.826;2023-10-13T12:00:41;8.48;;;4.32;;
75035;SDS011;73110;51.658;5.826;2023-10-13T12:02:51;12.18;;;5.65;;
75035;SDS011;73110;51.658;5.826;2023-10-13T12:05:11;11.35;;;4.88;;
75035;SDS011;73110;51.658;5.826;2023-10-13T12:07:12;7.18;;;4.20;;
75035;SDS011;73110;51.658;5.826;2023-10-13T12:09:32;13.63;;;4.72;;
75035;SDS011;73110;51.658;5.826;2023-10-13T12:11:42;12.05;;;5.28;;
75035;SDS011;73110;51.658;5.826;2023-10-13T12:13:45;6.75;;;4.60;;
75035;SDS011;73110;51.658;5.826;2023-10-13T12:15:46;12.70;;;4.50;;
75035;SDS011;73110;51.658;5.826;2023-10-13T12:17:52;11.68;;;5.72;;
75035;SDS011;73110;51.658;5.826;2023-10-13T12:19:53;13.85;;;5.22;;
75035;SDS011;73110;51.658;5.826;2023-10-13T12:21:57;12.10;;;5.18;;
75035;SDS011;73110;51.658;5.826;2023-10-13T12:24:04;12.32;;;4.65;;
75035;SDS011;73110;51.658;5.826;2023-10-13T12:26:12;10.63;;;4.25;;
75035;SDS011;73110;51.658;5.826;2023-10-13T12:28:30;13.52;;;5.15;;
75035;SDS011;73110;51.658;5.826;2023-10-13T12:30:38;15.93;;;5.57;;
75035;SDS011;73110;51.658;5.826;2023-10-13T12:32:53;13.20;;;5.72;;
75035;SDS011;73110;51.658;5.826;2023-10-13T12:34:58;14.73;;;4.75;;
75035;SDS011;73110;51.658;5.826;2023-10-13T12:36:59;16.98;;;6.07;;
75035;SDS011;73110;51.658;5.826;2023-10-13T12:39:20;14.95;;;5.15;;
75035;SDS011;73110;51.658;5.826;2023-10-13T12:41:39;10.52;;;4.90;;
75035;SDS011;73110;51.658;5.826;2023-10-13T12:43:59;12.05;;;4.55;;
75035;SDS011;73110;51.658;5.826;2023-10-13T12:46:19;24.83;;;6.22;;
75035;SDS011;73110;51.658;5.826;2023-10-13T12:48:38;11.18;;;5.00;;
75035;SDS011;73110;51.658;5.826;2023-10-13T12:51:00;12.15;;;5.18;;
75035;SDS011;73110;51.658;5.826;2023-10-13T12:53:20;11.30;;;4.70;;
75035;SDS011;73110;51.658;5.826;2023-10-13T12:55:20;10.35;;;4.45;;
75035;SDS011;73110;51.658;5.826;2023-10-13T12:57:25;13.02;;;5.65;;
75035;SDS011;73110;51.658;5.826;2023-10-13T12:59:29;10.60;;;4.22;;
75035;SDS011;73110;51.658;5.826;2023-10-13T13:01:30;14.32;;;4.55;;
75035;SDS011;73110;51.658;5.826;2023-10-13T13:03:34;15.43;;;4.97;;
75035;SDS011;73110;51.658;5.826;2023-10-13T13:05:36;13.30;;;5.05;;
75035;SDS011;73110;51.658;5.826;2023-10-13T13:07:44;11.77;;;4.60;;
75035;SDS011;73110;51.658;5.826;2023-10-13T13:09:52;13.95;;;4.50;;
75035;SDS011;73110;51.658;5.826;2023-10-13T13:11:56;16.35;;;5.45;;
75035;SDS011;73110;51.658;5.826;2023-10-13T13:13:57;12.10;;;4.68;;
75035;SDS011;73110;51.658;5.826;2023-10-13T13:15:58;12.27;;;4.97;;
75035;SDS011;73110;51.658;5.826;2023-10-13T13:17:59;13.10;;;5.25;;